sensor_id;sensor_type;location;lat;lon;timestamp;P1;durP1;ratioP1;P2;durP2;ratioP2
10491;SDS011;5293;51.464;-2.566;2023-12-20T00:01:00;15.23;;;2.83;;
10491;SDS011;5293;51.464;-2.566;2023-12-20T00:03:25;8.17;;;2.27;;
10491;SDS011;5293;51.464;-2.566;2023-12-20T00:05:51;12.87;;;3.00;;
10491;SDS011;5293;51.464;-2.566;2023-12-20T00:08:17;9.87;;;2.90;;
10491;SDS011;5293;51.464;-2.566;2023-12-20T00:10:43;11.63;;;2.97;;
10491;SDS011;5293;51.464;-2.566;2023-12-20T00:13:09;15.13;;;2.97;;
10491;SDS011;5293;51.464;-2.566;2023-12-20T00:15:35;12.90;;;2.90;;
10491;SDS011;5293;51.464;-2.566;2023-12-20T00:18:00;7.30;;;2.73;;
10491;SDS011;5293;51.464;-2.566;2023-12-20T00:20:26;11.27;;;2.70;;
10491;SDS011;5293;51.464;-2.566;2023-12-20T00:22:54;14.57;;;3.60;;
10491;SDS011;5293;51.464;-2.566;2023-12-20T00:25:23;9.07;;;2.30;;
10491;SDS011;5293;51.464;-2.566;2023-12-20T00:27:49;11.47;;;2.33;;
10491;SDS011;5293;51.464;-2.566;2023-12-20T00:30:15;10.80;;;2.80;;
10491;SDS011;5293;51.464;-2.566;2023-12-20T00:32:40;9.83;;;2.37;;
10491;SDS011;5293;51.464;-2.566;2023-12-20T00:35:14;15.53;;;2.37;;
10491;SDS011;5293;51.464;-2.566;2023-12-20T00:37:43;8.90;;;2.93;;
10491;SDS011;5293;51.464;-2.566;2023-12-20T00:40:09;13.90;;;3.13;;
10491;SDS011;5293;51.464;-2.566;2023-12-20T00:42:35;12.23;;;3.33;;
10491;SDS011;5293;51.464;-2.566;2023-12-20T00:45:01;11.70;;;2.67;;
10491;SDS011;5293;51.464;-2.566;2023-12-20T00:47:29;11.53;;;2.77;;
10491;SDS011;5293;51.464;-2.566;2023-12-20T00:49:55;13.03;;;3.13;;
10491;SDS011;5293;51.464;-2.566;2023-12-20T00:52:21;10.70;;;2.60;;
10491;SDS011;5293;51.464;-2.566;2023-12-20T00:54:47;8.33;;;2.03;;
10491;SDS011;5293;51.464;-2.566;2023-12-20T00:57:13;9.27;;;2.73;;
10491;SDS011;5293;51.464;-2.566;2023-12-20T00:59:40;9.00;;;2.50;;
10491;SDS011;5293;51.464;-2.566;2023-12-20T01:02:05;12.00;;;2.57;;
10491;SDS011;5293;51.464;-2.566;2023-12-20T01:04:31;12.30;;;2.77;;
10491;SDS011;5293;51.464;-2.566;2023-12-20T01:06:57;11.93;;;2.70;;
10491;SDS011;5293;51.464;-2.566;2023-12-20T01:09:22;9.27;;;2.87;;
10491;SDS011;5293;51.464;-2.566;2023-12-20T01:11:51;12.60;;;3.80;;
10491;SDS011;5293;51.464;-2.566;2023-12-20T01:14:17;12.67;;;3.30;;
10491;SDS011;5293;51.464;-2.566;2023-12-20T01:16:43;13.23;;;2.73;;
10491;SDS011;5293;51.464;-2.566;2023-12-20T01:19:08;14.63;;;2.50;;
10491;SDS011;5293;51.464;-2.566;2023-12-20T01:21:34;17.93;;;2.93;;
10491;SDS011;5293;51.464;-2.566;2023-12-20T01:24:00;11.30;;;3.00;;
10491;SDS011;5293;51.464;-2.566;2023-12-20T01:26:25;15.50;;;2.93;;
10491;SDS011;5293;51.464;-2.566;2023-12-20T01:28:51;7.90;;;2.80;;
10491;SDS011;5293;51.464;-2.566;2023-12-20T01:31:17;6.40;;;2.77;;
10491;SDS011;5293;51.464;-2.566;2023-12-20T01:33:42;10.83;;;2.73;;
10491;SDS011;5293;51.464;-2.566;2023-12-20T01:36:08;12.03;;;3.13;;
10491;SDS011;5293;51.464;-2.566;2023-12-20T01:38:34;12.77;;;3.07;;
10491;SDS011;5293;51.464;-2.566;2023-12-20T01:40:59;22.20;;;3.33;;
10491;SDS011;5293;51.464;-2.566;2023-12-20T01:43:25;10.23;;;3.17;;
10491;SDS011;5293;51.464;-2.566;2023-12-20T01:45:51;9.00;;;2.70;;
10491;SDS011;5293;51.464;-2.566;2023-12-20T01:48:17;13.73;;;3.00;;
10491;SDS011;5293;51.464;-2.566;2023-12-20T01:50:44;11.47;;;2.73;;
10491;SDS011;5293;51.464;-2.566;2023-12-20T01:53:11;14.90;;;2.83;;
10491;SDS011;5293;51.464;-2.566;2023-12-20T01:55:38;18.30;;;2.60;;
10491;SDS011;5293;51.464;-2.566;2023-12-20T01:58:05;10.80;;;2.87;;
10491;SDS011;5293;51.464;-2.566;2023-12-20T02:00:31;14.57;;;3.20;;
10491;SDS011;5293;51.464;-2.566;2023-12-20T02:03:00;8.87;;;2.30;;
10491;SDS011;5293;51.464;-2.566;2023-12-20T02:05:27;11.63;;;2.90;;
10491;SDS011;5293;51.464;-2.566;2023-12-20T02:07:54;10.87;;;2.03;;
10491;SDS011;5293;51.464;-2.566;2023-12-20T02:10:20;13.60;;;2.87;;
10491;SDS011;5293;51.464;-2.566;2023-12-20T02:12:46;18.30;;;2.90;;
10491;SDS011;5293;51.464;-2.566;2023-12-20T02:15:11;10.00;;;2.40;;
10491;SDS011;5293;51.464;-2.566;2023-12-20T02:17:38;10.00;;;3.03;;
10491;SDS011;5293;51.464;-2.566;2023-12-20T02:20:05;9.73;;;2.53;;
10491;SDS011;5293;51.464;-2.566;2023-12-20T02:22:31;9.47;;;2.63;;
10491;SDS011;5293;51.464;-2.566;2023-12-20T02:24:57;11.60;;;2.60;;
10491;SDS011;5293;51.464;-2.566;2023-12-20T02:27:23;9.37;;;1.93;;
10491;SDS011;5293;51.464;-2.566;2023-12-20T02:29:48;11.53;;;3.03;;
10491;SDS011;5293;51.464;-2.566;2023-12-20T02:32:15;12.97;;;2.30;;
10491;SDS011;5293;51.464;-2.566;2023-12-20T02:34:45;7.47;;;2.10;;
10491;SDS011;5293;51.464;-2.566;2023-12-20T02:37:14;12.00;;;2.30;;
10491;SDS011;5293;51.464;-2.566;2023-12-20T02:39:40;11.57;;;2.70;;
10491;SDS011;5293;51.464;-2.566;2023-12-20T02:42:06;10.67;;;2.13;;
10491;SDS011;5293;51.464;-2.566;2023-12-20T02:44:31;11.93;;;2.60;;
10491;SDS011;5293;51.464;-2.566;2023-12-20T02:46:57;16.97;;;2.93;;
10491;SDS011;5293;51.464;-2.566;2023-12-20T02:49:23;12.37;;;2.33;;
10491;SDS011;5293;51.464;-2.566;2023-12-20T02:51:48;9.70;;;2.43;;
10491;SDS011;5293;51.464;-2.566;2023-12-20T02:54:14;12.80;;;2.60;;
10491;SDS011;5293;51.464;-2.566;2023-12-20T02:56:40;10.70;;;2.93;;
10491;SDS011;5293;51.464;-2.566;2023-12-20T02:59:05;14.30;;;2.70;;
10491;SDS011;5293;51.464;-2.566;2023-12-20T03:01:33;16.10;;;2.60;;
10491;SDS011;5293;51.464;-2.566;2023-12-20T03:03:59;12.20;;;3.07;;
10491;SDS011;5293;51.464;-2.566;2023-12-20T03:06:26;14.30;;;2.83;;
10491;SDS011;5293;51.464;-2.566;2023-12-20T03:08:51;10.53;;;2.47;;
10491;SDS011;5293;51.464;-2.566;2023-12-20T03:11:17;12.37;;;2.10;;
10491;SDS011;5293;51.464;-2.566;2023-12-20T03:13:43;9.63;;;2.63;;
10491;SDS011;5293;51.464;-2.566;2023-12-20T03:16:09;9.93;;;2.13;;
10491;SDS011;5293;51.464;-2.566;2023-12-20T03:18:35;14.47;;;2.53;;
10491;SDS011;5293;51.464;-2.566;2023-12-20T03:21:01;6.83;;;2.27;;
10491;SDS011;5293;51.464;-2.566;2023-12-20T03:23:26;7.63;;;2.27;;
10491;SDS011;5293;51.464;-2.566;2023-12-20T03:25:52;6.07;;;2.43;;
10491;SDS011;5293;51.464;-2.566;2023-12-20T03:28:18;17.40;;;2.47;;
10491;SDS011;5293;51.464;-2.566;2023-12-20T03:30:44;14.37;;;2.63;;
10491;SDS011;5293;51.464;-2.566;2023-12-20T03:33:10;9.33;;;2.77;;
10491;SDS011;5293;51.464;-2.566;2023-12-20T03:35:36;10.33;;;2.50;;
10491;SDS011;5293;51.464;-2.566;2023-12-20T03:38:01;17.33;;;3.30;;
10491;SDS011;5293;51.464;-2.566;2023-12-20T03:40:27;14.13;;;3.60;;
10491;SDS011;5293;51.464;-2.566;2023-12-20T03:42:53;14.00;;;2.93;;
10491;SDS011;5293;51.464;-2.566;2023-12-20T03:45:19;14.70;;;3.33;;
10491;SDS011;5293;51.464;-2.566;2023-12-20T03:47:44;14.80;;;3.17;;
10491;SDS011;5293;51.464;-2.566;2023-12-20T03:50:10;12.50;;;2.30;;
10491;SDS011;5293;51.464;-2.566;2023-12-20T03:52:35;12.57;;;3.10;;
10491;SDS011;5293;51.464;-2.566;2023-12-20T03:55:01;15.17;;;2.93;;
10491;SDS011;5293;51.464;-2.566;2023-12-20T03:57:27;13.23;;;3.03;;
10491;SDS011;5293;51.464;-2.566;2023-12-20T03:59:53;11.50;;;2.40;;
10491;SDS011;5293;51.464;-2.566;2023-12-20T04:02:18;12.50;;;2.63;;
10491;SDS011;5293;51.464;-2.566;2023-12-20T04:04:44;13.57;;;2.87;;
10491;SDS011;5293;51.464;-2.566;2023-12-20T04:07:10;14.37;;;2.70;;
10491;SDS011;5293;51.464;-2.566;2023-12-20T04:09:35;17.57;;;2.60;;
10491;SDS011;5293;51.464;-2.566;2023-12-20T04:12:01;15.53;;;2.40;;
10491;SDS011;5293;51.464;-2.566;2023-12-20T04:14:27;11.37;;;3.03;;
10491;SDS011;5293;51.464;-2.566;2023-12-20T04:16:53;12.80;;;2.93;;
10491;SDS011;5293;51.464;-2.566;2023-12-20T04:19:19;10.17;;;2.80;;
10491;SDS011;5293;51.464;-2.566;2023-12-20T04:21:44;9.03;;;2.30;;
10491;SDS011;5293;51.464;-2.566;2023-12-20T04:24:10;7.00;;;2.33;;
10491;SDS011;5293;51.464;-2.566;2023-12-20T04:26:35;9.30;;;2.33;;
10491;SDS011;5293;51.464;-2.566;2023-12-20T04:29:01;13.83;;;2.77;;
10491;SDS011;5293;51.464;-2.566;2023-12-20T04:31:27;11.70;;;2.87;;
10491;SDS011;5293;51.464;-2.566;2023-12-20T04:33:52;15.80;;;2.93;;
10491;SDS011;5293;51.464;-2.566;2023-12-20T04:36:18;11.67;;;2.77;;
10491;SDS011;5293;51.464;-2.566;2023-12-20T04:38:44;12.20;;;2.97;;
10491;SDS011;5293;51.464;-2.566;2023-12-20T04:41:09;11.67;;;3.37;;
10491;SDS011;5293;51.464;-2.566;2023-12-20T04:43:35;9.70;;;3.63;;
10491;SDS011;5293;51.464;-2.566;2023-12-20T04:46:01;10.80;;;3.33;;
10491;SDS011;5293;51.464;-2.566;2023-12-20T04:48:27;20.93;;;3.37;;
10491;SDS011;5293;51.464;-2.566;2023-12-20T04:50:53;15.77;;;2.60;;
10491;SDS011;5293;51.464;-2.566;2023-12-20T04:53:18;18.63;;;3.33;;
10491;SDS011;5293;51.464;-2.566;2023-12-20T04:55:44;13.47;;;3.40;;
10491;SDS011;5293;51.464;-2.566;2023-12-20T04:58:10;8.00;;;2.90;;
10491;SDS011;5293;51.464;-2.566;2023-12-20T05:00:35;16.93;;;3.73;;
10491;SDS011;5293;51.464;-2.566;2023-12-20T05:03:01;12.83;;;3.00;;
10491;SDS011;5293;51.464;-2.566;2023-12-20T05:05:27;16.47;;;3.37;;
10491;SDS011;5293;51.464;-2.566;2023-12-20T05:07:52;8.77;;;2.80;;
10491;SDS011;5293;51.464;-2.566;2023-12-20T05:10:18;14.27;;;2.63;;
10491;SDS011;5293;51.464;-2.566;2023-12-20T05:12:44;11.90;;;3.10;;
10491;SDS011;5293;51.464;-2.566;2023-12-20T05:15:09;10.43;;;2.70;;
10491;SDS011;5293;51.464;-2.566;2023-12-20T05:17:35;19.87;;;3.20;;
10491;SDS011;5293;51.464;-2.566;2023-12-20T05:20:01;11.00;;;2.50;;
10491;SDS011;5293;51.464;-2.566;2023-12-20T05:22:26;15.47;;;3.47;;
10491;SDS011;5293;51.464;-2.566;2023-12-20T05:24:52;9.80;;;2.60;;
10491;SDS011;5293;51.464;-2.566;2023-12-20T05:27:18;15.60;;;2.67;;
10491;SDS011;5293;51.464;-2.566;2023-12-20T05:29:44;12.07;;;2.50;;
10491;SDS011;5293;51.464;-2.566;2023-12-20T05:32:09;10.93;;;2.40;;
10491;SDS011;5293;51.464;-2.566;2023-12-20T05:34:35;15.17;;;2.97;;
10491;SDS011;5293;51.464;-2.566;2023-12-20T05:37:01;8.50;;;2.67;;
10491;SDS011;5293;51.464;-2.566;2023-12-20T05:39:27;19.43;;;2.90;;
10491;SDS011;5293;51.464;-2.566;2023-12-20T05:41:53;15.80;;;2.70;;
10491;SDS011;5293;51.464;-2.566;2023-12-20T05:44:19;7.47;;;2.60;;
10491;SDS011;5293;51.464;-2.566;2023-12-20T05:46:44;12.60;;;2.67;;
10491;SDS011;5293;51.464;-2.566;2023-12-20T05:49:10;16.43;;;2.67;;
10491;SDS011;5293;51.464;-2.566;2023-12-20T05:51:36;15.17;;;2.90;;
10491;SDS011;5293;51.464;-2.566;2023-12-20T05:54:01;10.83;;;3.00;;
10491;SDS011;5293;51.464;-2.566;2023-12-20T05:56:27;12.17;;;2.77;;
10491;SDS011;5293;51.464;-2.566;2023-12-20T05:58:53;14.53;;;3.13;;
10491;SDS011;5293;51.464;-2.566;2023-12-20T06:01:18;15.53;;;2.57;;
10491;SDS011;5293;51.464;-2.566;2023-12-20T06:03:44;7.97;;;2.20;;
10491;SDS011;5293;51.464;-2.566;2023-12-20T06:06:11;10.47;;;2.60;;
10491;SDS011;5293;51.464;-2.566;2023-12-20T06:08:38;12.90;;;2.90;;
10491;SDS011;5293;51.464;-2.566;2023-12-20T06:11:03;10.53;;;2.47;;
10491;SDS011;5293;51.464;-2.566;2023-12-20T06:13:30;6.70;;;2.17;;
10491;SDS011;5293;51.464;-2.566;2023-12-20T06:15:56;11.63;;;2.30;;
10491;SDS011;5293;51.464;-2.566;2023-12-20T06:18:22;11.03;;;2.33;;
10491;SDS011;5293;51.464;-2.566;2023-12-20T06:20:48;12.77;;;2.50;;
10491;SDS011;5293;51.464;-2.566;2023-12-20T06:23:13;15.10;;;2.37;;
10491;SDS011;5293;51.464;-2.566;2023-12-20T06:25:39;9.93;;;2.13;;
10491;SDS011;5293;51.464;-2.566;2023-12-20T06:28:05;11.20;;;2.63;;
10491;SDS011;5293;51.464;-2.566;2023-12-20T06:30:31;10.03;;;2.50;;
10491;SDS011;5293;51.464;-2.566;2023-12-20T06:32:58;10.80;;;2.33;;
10491;SDS011;5293;51.464;-2.566;2023-12-20T06:35:24;11.57;;;2.97;;
10491;SDS011;5293;51.464;-2.566;2023-12-20T06:37:49;6.83;;;2.90;;
10491;SDS011;5293;51.464;-2.566;2023-12-20T06:40:15;8.30;;;2.63;;
10491;SDS011;5293;51.464;-2.566;2023-12-20T06:42:41;11.30;;;2.53;;
10491;SDS011;5293;51.464;-2.566;2023-12-20T06:45:07;8.97;;;2.23;;
10491;SDS011;5293;51.464;-2.566;2023-12-20T06:47:33;9.77;;;2.10;;
10491;SDS011;5293;51.464;-2.566;2023-12-20T06:49:58;10.03;;;2.07;;
10491;SDS011;5293;51.464;-2.566;2023-12-20T06:52:24;10.67;;;2.70;;
10491;SDS011;5293;51.464;-2.566;2023-12-20T06:54:50;6.80;;;2.07;;
10491;SDS011;5293;51.464;-2.566;2023-12-20T06:57:16;12.33;;;2.70;;
10491;SDS011;5293;51.464;-2.566;2023-12-20T06:59:41;10.63;;;2.90;;
10491;SDS011;5293;51.464;-2.566;2023-12-20T07:02:08;9.43;;;2.03;;
10491;SDS011;5293;51.464;-2.566;2023-12-20T07:04:34;9.57;;;2.40;;
10491;SDS011;5293;51.464;-2.566;2023-12-20T07:07:04;7.23;;;2.20;;
10491;SDS011;5293;51.464;-2.566;2023-12-20T07:09:29;10.77;;;2.10;;
10491;SDS011;5293;51.464;-2.566;2023-12-20T07:11:55;17.30;;;2.93;;
10491;SDS011;5293;51.464;-2.566;2023-12-20T07:14:20;11.57;;;2.47;;
10491;SDS011;5293;51.464;-2.566;2023-12-20T07:16:46;14.70;;;3.10;;
10491;SDS011;5293;51.464;-2.566;2023-12-20T07:19:12;9.10;;;2.43;;
10491;SDS011;5293;51.464;-2.566;2023-12-20T07:21:38;7.93;;;2.40;;
10491;SDS011;5293;51.464;-2.566;2023-12-20T07:24:03;9.63;;;2.53;;
10491;SDS011;5293;51.464;-2.566;2023-12-20T07:26:29;14.47;;;2.33;;
10491;SDS011;5293;51.464;-2.566;2023-12-20T07:28:55;11.07;;;3.37;;
10491;SDS011;5293;51.464;-2.566;2023-12-20T07:31:20;8.73;;;2.13;;
10491;SDS011;5293;51.464;-2.566;2023-12-20T07:33:46;8.73;;;2.20;;
10491;SDS011;5293;51.464;-2.566;2023-12-20T07:36:12;13.03;;;2.40;;
10491;SDS011;5293;51.464;-2.566;2023-12-20T07:38:38;10.07;;;3.07;;
10491;SDS011;5293;51.464;-2.566;2023-12-20T07:41:03;8.07;;;2.43;;
10491;SDS011;5293;51.464;-2.566;2023-12-20T07:43:29;8.53;;;2.07;;
10491;SDS011;5293;51.464;-2.566;2023-12-20T07:45:55;7.37;;;2.20;;
10491;SDS011;5293;51.464;-2.566;2023-12-20T07:48:21;9.27;;;2.33;;
10491;SDS011;5293;51.464;-2.566;2023-12-20T07:50:47;6.53;;;2.17;;
10491;SDS011;5293;51.464;-2.566;2023-12-20T07:53:12;10.87;;;2.23;;
10491;SDS011;5293;51.464;-2.566;2023-12-20T07:55:38;10.53;;;2.07;;
10491;SDS011;5293;51.464;-2.566;2023-12-20T07:58:04;10.30;;;2.73;;
10491;SDS011;5293;51.464;-2.566;2023-12-20T08:00:30;9.30;;;2.07;;
10491;SDS011;5293;51.464;-2.566;2023-12-20T08:02:55;12.77;;;2.20;;
10491;SDS011;5293;51.464;-2.566;2023-12-20T08:05:21;8.63;;;2.40;;
10491;SDS011;5293;51.464;-2.566;2023-12-20T08:07:47;8.80;;;1.70;;
10491;SDS011;5293;51.464;-2.566;2023-12-20T08:10:13;8.67;;;1.80;;
10491;SDS011;5293;51.464;-2.566;2023-12-20T08:12:38;9.40;;;2.67;;
10491;SDS011;5293;51.464;-2.566;2023-12-20T08:15:05;6.80;;;2.00;;
10491;SDS011;5293;51.464;-2.566;2023-12-20T08:17:31;8.13;;;2.33;;
10491;SDS011;5293;51.464;-2.566;2023-12-20T08:19:56;7.30;;;1.80;;
10491;SDS011;5293;51.464;-2.566;2023-12-20T08:22:22;9.50;;;1.50;;
10491;SDS011;5293;51.464;-2.566;2023-12-20T08:24:48;8.93;;;2.13;;
10491;SDS011;5293;51.464;-2.566;2023-12-20T08:27:14;7.27;;;1.87;;
10491;SDS011;5293;51.464;-2.566;2023-12-20T08:29:39;4.83;;;1.83;;
10491;SDS011;5293;51.464;-2.566;2023-12-20T08:32:05;5.43;;;1.97;;
10491;SDS011;5293;51.464;-2.566;2023-12-20T08:34:31;7.90;;;2.30;;
10491;SDS011;5293;51.464;-2.566;2023-12-20T08:36:56;8.27;;;2.60;;
10491;SDS011;5293;51.464;-2.566;2023-12-20T08:39:22;9.80;;;1.83;;
10491;SDS011;5293;51.464;-2.566;2023-12-20T08:41:48;6.03;;;1.60;;
10491;SDS011;5293;51.464;-2.566;2023-12-20T08:44:13;4.60;;;1.83;;
10491;SDS011;5293;51.464;-2.566;2023-12-20T08:46:39;6.27;;;1.77;;
10491;SDS011;5293;51.464;-2.566;2023-12-20T08:49:04;3.93;;;1.63;;
10491;SDS011;5293;51.464;-2.566;2023-12-20T08:51:30;9.17;;;2.10;;
10491;SDS011;5293;51.464;-2.566;2023-12-20T08:53:56;10.30;;;2.37;;
10491;SDS011;5293;51.464;-2.566;2023-12-20T08:56:21;10.80;;;2.23;;
10491;SDS011;5293;51.464;-2.566;2023-12-20T08:58:47;4.20;;;1.77;;
10491;SDS011;5293;51.464;-2.566;2023-12-20T09:01:13;5.97;;;1.60;;
10491;SDS011;5293;51.464;-2.566;2023-12-20T09:03:39;3.60;;;1.27;;
10491;SDS011;5293;51.464;-2.566;2023-12-20T09:06:05;8.60;;;1.70;;
10491;SDS011;5293;51.464;-2.566;2023-12-20T09:08:34;6.00;;;1.43;;
10491;SDS011;5293;51.464;-2.566;2023-12-20T09:10:59;3.23;;;1.17;;
10491;SDS011;5293;51.464;-2.566;2023-12-20T09:13:25;6.13;;;2.00;;
10491;SDS011;5293;51.464;-2.566;2023-12-20T09:15:57;3.47;;;1.30;;
10491;SDS011;5293;51.464;-2.566;2023-12-20T09:18:23;4.53;;;2.47;;
10491;SDS011;5293;51.464;-2.566;2023-12-20T09:20:48;5.27;;;2.23;;
10491;SDS011;5293;51.464;-2.566;2023-12-20T09:23:14;3.00;;;1.70;;
10491;SDS011;5293;51.464;-2.566;2023-12-20T09:25:40;6.57;;;1.60;;
10491;SDS011;5293;51.464;-2.566;2023-12-20T09:28:05;3.40;;;1.50;;
10491;SDS011;5293;51.464;-2.566;2023-12-20T09:30:31;4.07;;;1.30;;
10491;SDS011;5293;51.464;-2.566;2023-12-20T09:32:57;6.90;;;1.47;;
10491;SDS011;5293;51.464;-2.566;2023-12-20T09:35:23;5.53;;;1.30;;
10491;SDS011;5293;51.464;-2.566;2023-12-20T09:37:48;7.10;;;1.30;;
10491;SDS011;5293;51.464;-2.566;2023-12-20T09:40:14;3.50;;;1.30;;
10491;SDS011;5293;51.464;-2.566;2023-12-20T09:45:10;4.60;;;1.77;;
10491;SDS011;5293;51.464;-2.566;2023-12-20T09:47:42;5.80;;;1.60;;
10491;SDS011;5293;51.464;-2.566;2023-12-20T09:50:08;3.90;;;1.33;;
10491;SDS011;5293;51.464;-2.566;2023-12-20T09:52:35;6.00;;;1.90;;
10491;SDS011;5293;51.464;-2.566;2023-12-20T09:55:02;7.17;;;2.13;;
10491;SDS011;5293;51.464;-2.566;2023-12-20T09:57:31;2.60;;;1.77;;
10491;SDS011;5293;51.464;-2.566;2023-12-20T09:59:57;3.97;;;1.77;;
10491;SDS011;5293;51.464;-2.566;2023-12-20T10:02:24;3.67;;;1.50;;
10491;SDS011;5293;51.464;-2.566;2023-12-20T10:04:54;7.60;;;1.57;;
10491;SDS011;5293;51.464;-2.566;2023-12-20T10:07:21;6.27;;;1.80;;
10491;SDS011;5293;51.464;-2.566;2023-12-20T10:09:47;9.47;;;2.00;;
10491;SDS011;5293;51.464;-2.566;2023-12-20T10:12:13;6.00;;;1.90;;
10491;SDS011;5293;51.464;-2.566;2023-12-20T10:14:39;4.07;;;1.80;;
10491;SDS011;5293;51.464;-2.566;2023-12-20T10:17:05;8.03;;;2.00;;
10491;SDS011;5293;51.464;-2.566;2023-12-20T10:19:32;4.80;;;1.90;;
10491;SDS011;5293;51.464;-2.566;2023-12-20T10:22:01;6.77;;;1.67;;
10491;SDS011;5293;51.464;-2.566;2023-12-20T10:24:29;7.17;;;1.77;;
10491;SDS011;5293;51.464;-2.566;2023-12-20T10:27:05;5.83;;;1.57;;
10491;SDS011;5293;51.464;-2.566;2023-12-20T10:29:33;6.80;;;1.70;;
10491;SDS011;5293;51.464;-2.566;2023-12-20T10:31:59;5.93;;;2.20;;
10491;SDS011;5293;51.464;-2.566;2023-12-20T10:34:25;7.57;;;1.53;;
10491;SDS011;5293;51.464;-2.566;2023-12-20T10:36:51;3.23;;;1.40;;
10491;SDS011;5293;51.464;-2.566;2023-12-20T10:39:17;1.77;;;1.30;;
10491;SDS011;5293;51.464;-2.566;2023-12-20T10:41:45;5.03;;;2.10;;
10491;SDS011;5293;51.464;-2.566;2023-12-20T10:44:11;8.03;;;1.87;;
10491;SDS011;5293;51.464;-2.566;2023-12-20T10:46:39;7.53;;;1.93;;
10491;SDS011;5293;51.464;-2.566;2023-12-20T10:49:05;4.23;;;1.80;;
10491;SDS011;5293;51.464;-2.566;2023-12-20T10:51:33;6.90;;;2.10;;
10491;SDS011;5293;51.464;-2.566;2023-12-20T10:53:59;7.27;;;2.07;;
10491;SDS011;5293;51.464;-2.566;2023-12-20T10:56:25;6.93;;;1.90;;
10491;SDS011;5293;51.464;-2.566;2023-12-20T10:58:57;10.00;;;2.00;;
10491;SDS011;5293;51.464;-2.566;2023-12-20T11:01:27;5.63;;;2.10;;
10491;SDS011;5293;51.464;-2.566;2023-12-20T11:03:55;6.33;;;1.60;;
10491;SDS011;5293;51.464;-2.566;2023-12-20T11:06:29;4.43;;;1.80;;
10491;SDS011;5293;51.464;-2.566;2023-12-20T11:12:17;7.97;;;2.63;;
10491;SDS011;5293;51.464;-2.566;2023-12-20T11:17:12;3.27;;;1.70;;
10491;SDS011;5293;51.464;-2.566;2023-12-20T11:22:21;3.97;;;2.27;;
10491;SDS011;5293;51.464;-2.566;2023-12-20T11:24:49;7.27;;;2.23;;
10491;SDS011;5293;51.464;-2.566;2023-12-20T11:27:16;6.03;;;1.97;;
10491;SDS011;5293;51.464;-2.566;2023-12-20T11:30:05;7.77;;;2.00;;
10491;SDS011;5293;51.464;-2.566;2023-12-20T11:32:34;16.13;;;2.13;;
10491;SDS011;5293;51.464;-2.566;2023-12-20T11:37:38;5.37;;;1.53;;
10491;SDS011;5293;51.464;-2.566;2023-12-20T11:40:08;4.07;;;1.73;;
10491;SDS011;5293;51.464;-2.566;2023-12-20T11:42:40;4.33;;;1.93;;
10491;SDS011;5293;51.464;-2.566;2023-12-20T11:45:10;6.18;;;1.90;;
10491;SDS011;5293;51.464;-2.566;2023-12-20T11:47:40;3.13;;;1.67;;
10491;SDS011;5293;51.464;-2.566;2023-12-20T11:50:07;8.63;;;2.33;;
10491;SDS011;5293;51.464;-2.566;2023-12-20T11:52:32;6.13;;;1.67;;
10491;SDS011;5293;51.464;-2.566;2023-12-20T11:54:58;3.40;;;1.67;;
10491;SDS011;5293;51.464;-2.566;2023-12-20T11:57:24;3.87;;;1.87;;
10491;SDS011;5293;51.464;-2.566;2023-12-20T11:59:50;5.07;;;1.90;;
10491;SDS011;5293;51.464;-2.566;2023-12-20T12:02:16;6.33;;;1.73;;
10491;SDS011;5293;51.464;-2.566;2023-12-20T12:04:42;3.77;;;1.30;;
10491;SDS011;5293;51.464;-2.566;2023-12-20T12:07:07;4.87;;;1.13;;
10491;SDS011;5293;51.464;-2.566;2023-12-20T12:09:34;5.23;;;2.23;;
10491;SDS011;5293;51.464;-2.566;2023-12-20T12:12:00;5.30;;;2.10;;
10491;SDS011;5293;51.464;-2.566;2023-12-20T12:14:26;6.00;;;1.80;;
10491;SDS011;5293;51.464;-2.566;2023-12-20T12:16:52;9.03;;;1.40;;
10491;SDS011;5293;51.464;-2.566;2023-12-20T12:19:24;5.33;;;1.60;;
10491;SDS011;5293;51.464;-2.566;2023-12-20T12:21:51;7.57;;;1.63;;
10491;SDS011;5293;51.464;-2.566;2023-12-20T12:24:32;4.97;;;1.50;;
10491;SDS011;5293;51.464;-2.566;2023-12-20T12:26:57;6.70;;;1.67;;
10491;SDS011;5293;51.464;-2.566;2023-12-20T12:29:23;6.70;;;2.13;;
10491;SDS011;5293;51.464;-2.566;2023-12-20T12:31:50;2.63;;;1.67;;
10491;SDS011;5293;51.464;-2.566;2023-12-20T12:34:17;4.33;;;1.60;;
10491;SDS011;5293;51.464;-2.566;2023-12-20T12:36:43;6.50;;;2.10;;
10491;SDS011;5293;51.464;-2.566;2023-12-20T12:39:12;8.03;;;2.00;;
10491;SDS011;5293;51.464;-2.566;2023-12-20T12:41:40;6.40;;;1.83;;
10491;SDS011;5293;51.464;-2.566;2023-12-20T12:44:05;5.57;;;1.70;;
10491;SDS011;5293;51.464;-2.566;2023-12-20T12:46:31;9.00;;;1.70;;
10491;SDS011;5293;51.464;-2.566;2023-12-20T12:48:57;5.27;;;2.10;;
10491;SDS011;5293;51.464;-2.566;2023-12-20T12:51:23;5.37;;;1.87;;
10491;SDS011;5293;51.464;-2.566;2023-12-20T12:53:49;8.80;;;2.17;;
10491;SDS011;5293;51.464;-2.566;2023-12-20T12:56:14;10.27;;;2.27;;
10491;SDS011;5293;51.464;-2.566;2023-12-20T12:58:40;4.70;;;1.60;;
10491;SDS011;5293;51.464;-2.566;2023-12-20T13:01:06;4.93;;;1.50;;
10491;SDS011;5293;51.464;-2.566;2023-12-20T13:03:32;5.57;;;1.30;;
10491;SDS011;5293;51.464;-2.566;2023-12-20T13:05:59;8.37;;;1.93;;
10491;SDS011;5293;51.464;-2.566;2023-12-20T13:08:25;5.10;;;1.70;;
10491;SDS011;5293;51.464;-2.566;2023-12-20T13:10:51;5.13;;;1.53;;
10491;SDS011;5293;51.464;-2.566;2023-12-20T13:13:16;6.57;;;1.60;;
10491;SDS011;5293;51.464;-2.566;2023-12-20T13:15:42;8.43;;;1.77;;
10491;SDS011;5293;51.464;-2.566;2023-12-20T13:18:15;9.40;;;1.93;;
10491;SDS011;5293;51.464;-2.566;2023-12-20T13:20:42;4.03;;;1.87;;
10491;SDS011;5293;51.464;-2.566;2023-12-20T13:23:07;3.50;;;1.70;;
10491;SDS011;5293;51.464;-2.566;2023-12-20T13:25:33;4.87;;;1.37;;
10491;SDS011;5293;51.464;-2.566;2023-12-20T13:27:59;4.10;;;1.63;;
10491;SDS011;5293;51.464;-2.566;2023-12-20T13:30:24;8.93;;;1.67;;
10491;SDS011;5293;51.464;-2.566;2023-12-20T13:32:50;5.50;;;1.73;;
10491;SDS011;5293;51.464;-2.566;2023-12-20T13:35:16;9.07;;;2.10;;
10491;SDS011;5293;51.464;-2.566;2023-12-20T13:37:41;9.10;;;1.73;;
10491;SDS011;5293;51.464;-2.566;2023-12-20T13:40:07;14.13;;;2.17;;
10491;SDS011;5293;51.464;-2.566;2023-12-20T13:42:33;3.87;;;1.57;;
10491;SDS011;5293;51.464;-2.566;2023-12-20T13:44:59;8.10;;;2.07;;
10491;SDS011;5293;51.464;-2.566;2023-12-20T13:47:25;6.77;;;1.73;;
10491;SDS011;5293;51.464;-2.566;2023-12-20T13:49:50;6.50;;;1.83;;
10491;SDS011;5293;51.464;-2.566;2023-12-20T13:52:16;9.80;;;2.05;;
10491;SDS011;5293;51.464;-2.566;2023-12-20T13:54:42;7.87;;;2.30;;
10491;SDS011;5293;51.464;-2.566;2023-12-20T13:57:07;11.37;;;2.63;;
10491;SDS011;5293;51.464;-2.566;2023-12-20T13:59:33;10.70;;;1.83;;
10491;SDS011;5293;51.464;-2.566;2023-12-20T14:02:00;5.70;;;2.00;;
10491;SDS011;5293;51.464;-2.566;2023-12-20T14:04:26;7.30;;;1.90;;
10491;SDS011;5293;51.464;-2.566;2023-12-20T14:06:51;10.10;;;2.60;;
10491;SDS011;5293;51.464;-2.566;2023-12-20T14:09:17;5.17;;;1.73;;
10491;SDS011;5293;51.464;-2.566;2023-12-20T14:11:43;4.47;;;1.87;;
10491;SDS011;5293;51.464;-2.566;2023-12-20T14:14:08;5.87;;;2.10;;
10491;SDS011;5293;51.464;-2.566;2023-12-20T14:16:34;7.40;;;2.23;;
10491;SDS011;5293;51.464;-2.566;2023-12-20T14:19:00;10.13;;;2.13;;
10491;SDS011;5293;51.464;-2.566;2023-12-20T14:21:28;6.43;;;2.27;;
10491;SDS011;5293;51.464;-2.566;2023-12-20T14:23:53;6.87;;;2.30;;
10491;SDS011;5293;51.464;-2.566;2023-12-20T14:26:19;12.73;;;2.40;;
10491;SDS011;5293;51.464;-2.566;2023-12-20T14:28:45;9.87;;;2.70;;
10491;SDS011;5293;51.464;-2.566;2023-12-20T14:31:13;8.50;;;2.37;;
10491;SDS011;5293;51.464;-2.566;2023-12-20T14:33:39;9.63;;;2.88;;
10491;SDS011;5293;51.464;-2.566;2023-12-20T14:36:07;9.77;;;2.80;;
10491;SDS011;5293;51.464;-2.566;2023-12-20T14:38:33;8.13;;;3.13;;
10491;SDS011;5293;51.464;-2.566;2023-12-20T14:40:59;8.43;;;2.53;;
10491;SDS011;5293;51.464;-2.566;2023-12-20T14:43:25;8.70;;;2.70;;
10491;SDS011;5293;51.464;-2.566;2023-12-20T14:45:51;10.83;;;2.60;;
10491;SDS011;5293;51.464;-2.566;2023-12-20T14:48:17;9.33;;;3.00;;
10491;SDS011;5293;51.464;-2.566;2023-12-20T14:50:43;14.03;;;3.10;;